首页
METAR-TAF:

METAR-TAF

机场 :

奥古斯塔, 喬治亞, 美国

纬度: 33-21-52N, 经度: 081-57-48W, 海拔: 44米

当前天气观测

该预报发布于35分钟前的01:53 UTC
风速3节,风向西转西南
温度 27°C
湿度 79%
气压 1015 hPa
能見度: 16.1公里
天空无云

METAR: KAGS 050153Z AUTO 25003KT 10SM CLR 27/23 A2996 RMK AO2 SLP143 P0001 T02720228

时间: 22:28 (02:28 UTC)

预报

该预报发布于2小时和53分钟前的23:35 UTC
预报有效从05日的 00点(UTC)到 05日的 24点(UTC)
风速5节,风向多变
能見度: 10公里
散云层高于5000英尺
散云层高于12000英尺
从 05日的 0200点(UTC)
风速3节,风向多变
能見度: 10公里
散云层高于12000英尺
短暂存在
从 05日的 09点(UTC)到 05日的 11点(UTC)
能見度: 8.0公里
散云层高于800英尺
轻雾
从 05日的 1300点(UTC)
风速4节,风向多变
能見度: 10公里
少量云层高于4000英尺
从 05日的 1800点(UTC)
风速6节,风向南转南东
能見度: 10公里
散云层高于5000英尺, 积雨云.
附近有雷暴

TAF: KAGS 042335Z 0500/0524 VRB05KT P6SM SCT050 SCT120 FM050200 VRB03KT P6SM SCT120 TEMPO 0509/0511 5SM BR SCT008 FM051300 VRB04KT P6SM FEW040 FM051800 15006KT P6SM VCTS SCT050CB

超过4000个机场的气象观测和天气预报(METAR&TAF报告)。

可查询的气象台以黄色和红色小点在地图上表示。

将鼠标移到小点上方,可查看气象台名称。

然后点击查看天气观测和预报。

如需切换地图:点击带黑十字的绿色按钮放大地图;点击带横线的绿色按钮缩小地图;或者点击绿色箭头查看邻近地区的地图。


METAR-TAF: